sensor_id;sensor_type;location;lat;lon;timestamp;temperature;humidity
16881;DHT22;8557;52.068;5.198;2022-09-09T00:02:13;16.00;99.90
16881;DHT22;8557;52.068;5.198;2022-09-09T00:04:48;15.80;99.90
16881;DHT22;8557;52.068;5.198;2022-09-09T00:07:21;15.70;99.90
16881;DHT22;8557;52.068;5.198;2022-09-09T00:09:56;15.70;99.90
16881;DHT22;8557;52.068;5.198;2022-09-09T00:12:34;15.70;99.90
16881;DHT22;8557;52.068;5.198;2022-09-09T00:15:07;15.60;99.90
16881;DHT22;8557;52.068;5.198;2022-09-09T00:17:38;15.60;99.90
16881;DHT22;8557;52.068;5.198;2022-09-09T00:20:12;15.60;99.90
16881;DHT22;8557;52.068;5.198;2022-09-09T00:22:47;15.60;99.90
16881;DHT22;8557;52.068;5.198;2022-09-09T00:25:21;15.60;99.90
16881;DHT22;8557;52.068;5.198;2022-09-09T00:27:51;15.60;99.90
16881;DHT22;8557;52.068;5.198;2022-09-09T00:30:19;15.50;99.90
16881;DHT22;8557;52.068;5.198;2022-09-09T00:32:49;15.50;99.90
16881;DHT22;8557;52.068;5.198;2022-09-09T00:35:22;15.40;99.90
16881;DHT22;8557;52.068;5.198;2022-09-09T00:37:53;15.40;99.90
16881;DHT22;8557;52.068;5.198;2022-09-09T00:40:28;15.30;99.90
16881;DHT22;8557;52.068;5.198;2022-09-09T00:43:21;15.40;99.90
16881;DHT22;8557;52.068;5.198;2022-09-09T00:46:18;15.30;99.90
16881;DHT22;8557;52.068;5.198;2022-09-09T00:48:54;15.30;99.90
16881;DHT22;8557;52.068;5.198;2022-09-09T00:51:32;15.30;99.90
16881;DHT22;8557;52.068;5.198;2022-09-09T00:54:23;15.30;99.90
16881;DHT22;8557;52.068;5.198;2022-09-09T00:57:01;15.30;99.90
16881;DHT22;8557;52.068;5.198;2022-09-09T00:59:38;15.30;99.90
16881;DHT22;8557;52.068;5.198;2022-09-09T01:02:15;15.20;99.90
16881;DHT22;8557;52.068;5.198;2022-09-09T01:04:42;15.20;99.90
16881;DHT22;8557;52.068;5.198;2022-09-09T01:07:16;15.20;99.90
16881;DHT22;8557;52.068;5.198;2022-09-09T01:09:51;15.20;99.90
16881;DHT22;8557;52.068;5.198;2022-09-09T01:12:25;15.10;99.90
16881;DHT22;8557;52.068;5.198;2022-09-09T01:15:00;15.10;99.90
16881;DHT22;8557;52.068;5.198;2022-09-09T01:17:32;15.10;99.90
16881;DHT22;8557;52.068;5.198;2022-09-09T01:20:08;15.10;99.90
16881;DHT22;8557;52.068;5.198;2022-09-09T01:22:44;15.10;99.90
16881;DHT22;8557;52.068;5.198;2022-09-09T01:26:02;15.00;99.90
16881;DHT22;8557;52.068;5.198;2022-09-09T01:28:31;15.00;99.90
16881;DHT22;8557;52.068;5.198;2022-09-09T01:31:01;15.00;99.90
16881;DHT22;8557;52.068;5.198;2022-09-09T01:33:28;15.00;99.90
16881;DHT22;8557;52.068;5.198;2022-09-09T01:35:57;14.80;99.90
16881;DHT22;8557;52.068;5.198;2022-09-09T01:38:26;14.80;99.90
16881;DHT22;8557;52.068;5.198;2022-09-09T01:40:55;14.80;99.90
16881;DHT22;8557;52.068;5.198;2022-09-09T01:43:24;14.70;99.90
16881;DHT22;8557;52.068;5.198;2022-09-09T01:45:53;14.80;99.90
16881;DHT22;8557;52.068;5.198;2022-09-09T01:48:22;14.80;99.90
16881;DHT22;8557;52.068;5.198;2022-09-09T01:50:50;14.80;99.90
16881;DHT22;8557;52.068;5.198;2022-09-09T01:53:18;14.80;99.90
16881;DHT22;8557;52.068;5.198;2022-09-09T01:55:53;14.80;99.90
16881;DHT22;8557;52.068;5.198;2022-09-09T01:58:32;14.70;99.90
16881;DHT22;8557;52.068;5.198;2022-09-09T02:01:06;14.70;99.90
16881;DHT22;8557;52.068;5.198;2022-09-09T02:03:36;14.70;99.90
16881;DHT22;8557;52.068;5.198;2022-09-09T02:06:13;14.70;99.90
16881;DHT22;8557;52.068;5.198;2022-09-09T02:08:44;14.60;99.90
16881;DHT22;8557;52.068;5.198;2022-09-09T02:11:14;14.60;99.90
16881;DHT22;8557;52.068;5.198;2022-09-09T02:13:44;14.70;99.90
16881;DHT22;8557;52.068;5.198;2022-09-09T02:16:15;14.70;99.90
16881;DHT22;8557;52.068;5.198;2022-09-09T02:18:48;14.70;99.90
16881;DHT22;8557;52.068;5.198;2022-09-09T02:21:17;14.70;99.90
16881;DHT22;8557;52.068;5.198;2022-09-09T02:23:46;14.70;99.90
16881;DHT22;8557;52.068;5.198;2022-09-09T02:26:16;14.70;99.90
16881;DHT22;8557;52.068;5.198;2022-09-09T02:28:49;14.70;99.90
16881;DHT22;8557;52.068;5.198;2022-09-09T02:31:19;14.80;99.90
16881;DHT22;8557;52.068;5.198;2022-09-09T02:33:49;14.80;99.90
16881;DHT22;8557;52.068;5.198;2022-09-09T02:36:19;14.80;99.90
16881;DHT22;8557;52.068;5.198;2022-09-09T02:38:48;14.70;99.90
16881;DHT22;8557;52.068;5.198;2022-09-09T02:41:20;14.70;99.90
16881;DHT22;8557;52.068;5.198;2022-09-09T02:43:49;14.70;99.90
16881;DHT22;8557;52.068;5.198;2022-09-09T02:46:25;14.70;99.90
16881;DHT22;8557;52.068;5.198;2022-09-09T02:49:00;14.70;99.90
16881;DHT22;8557;52.068;5.198;2022-09-09T02:51:35;14.70;99.90
16881;DHT22;8557;52.068;5.198;2022-09-09T02:54:10;14.70;99.90
16881;DHT22;8557;52.068;5.198;2022-09-09T02:56:42;14.80;99.90
16881;DHT22;8557;52.068;5.198;2022-09-09T02:59:11;14.70;99.90
16881;DHT22;8557;52.068;5.198;2022-09-09T03:01:38;14.60;99.90
16881;DHT22;8557;52.068;5.198;2022-09-09T03:04:05;14.60;99.90
16881;DHT22;8557;52.068;5.198;2022-09-09T03:06:32;14.50;99.90
16881;DHT22;8557;52.068;5.198;2022-09-09T03:08:59;14.50;99.90
16881;DHT22;8557;52.068;5.198;2022-09-09T03:11:28;14.50;99.90
16881;DHT22;8557;52.068;5.198;2022-09-09T03:13:55;14.50;99.90
16881;DHT22;8557;52.068;5.198;2022-09-09T03:16:23;14.50;99.90
16881;DHT22;8557;52.068;5.198;2022-09-09T03:18:50;14.40;99.90
16881;DHT22;8557;52.068;5.198;2022-09-09T03:21:17;14.50;99.90
16881;DHT22;8557;52.068;5.198;2022-09-09T03:23:44;14.40;99.90
16881;DHT22;8557;52.068;5.198;2022-09-09T03:26:11;14.40;99.90
16881;DHT22;8557;52.068;5.198;2022-09-09T03:28:40;14.40;99.90
16881;DHT22;8557;52.068;5.198;2022-09-09T03:31:07;14.30;99.90
16881;DHT22;8557;52.068;5.198;2022-09-09T03:33:37;14.40;99.90
16881;DHT22;8557;52.068;5.198;2022-09-09T03:36:04;14.30;99.90
16881;DHT22;8557;52.068;5.198;2022-09-09T03:38:31;14.40;99.90
16881;DHT22;8557;52.068;5.198;2022-09-09T03:41:00;14.40;99.90
16881;DHT22;8557;52.068;5.198;2022-09-09T03:43:28;14.40;99.90
16881;DHT22;8557;52.068;5.198;2022-09-09T03:45:55;14.30;99.90
16881;DHT22;8557;52.068;5.198;2022-09-09T03:48:22;14.30;99.90
16881;DHT22;8557;52.068;5.198;2022-09-09T03:50:52;14.30;99.90
16881;DHT22;8557;52.068;5.198;2022-09-09T03:53:22;14.40;99.90
16881;DHT22;8557;52.068;5.198;2022-09-09T03:55:52;14.40;99.90
16881;DHT22;8557;52.068;5.198;2022-09-09T03:58:21;14.30;99.90
16881;DHT22;8557;52.068;5.198;2022-09-09T04:01:00;14.20;99.90
16881;DHT22;8557;52.068;5.198;2022-09-09T04:03:27;14.20;99.90
16881;DHT22;8557;52.068;5.198;2022-09-09T04:05:57;14.30;99.90
16881;DHT22;8557;52.068;5.198;2022-09-09T04:08:25;14.40;99.90
16881;DHT22;8557;52.068;5.198;2022-09-09T04:10:52;14.30;99.90
16881;DHT22;8557;52.068;5.198;2022-09-09T04:13:22;14.30;99.90
16881;DHT22;8557;52.068;5.198;2022-09-09T04:15:51;14.40;99.90
16881;DHT22;8557;52.068;5.198;2022-09-09T04:18:18;14.40;99.90
16881;DHT22;8557;52.068;5.198;2022-09-09T04:20:46;14.40;99.90
16881;DHT22;8557;52.068;5.198;2022-09-09T04:23:14;14.50;99.90
16881;DHT22;8557;52.068;5.198;2022-09-09T04:25:44;14.40;99.90
16881;DHT22;8557;52.068;5.198;2022-09-09T04:28:12;14.40;99.90
16881;DHT22;8557;52.068;5.198;2022-09-09T04:30:39;14.40;99.90
16881;DHT22;8557;52.068;5.198;2022-09-09T04:33:07;14.40;99.90
16881;DHT22;8557;52.068;5.198;2022-09-09T04:35:35;14.40;99.90
16881;DHT22;8557;52.068;5.198;2022-09-09T04:38:02;14.30;99.90
16881;DHT22;8557;52.068;5.198;2022-09-09T04:40:31;14.30;99.90
16881;DHT22;8557;52.068;5.198;2022-09-09T04:42:58;14.30;99.90
16881;DHT22;8557;52.068;5.198;2022-09-09T04:45:26;14.20;99.90
16881;DHT22;8557;52.068;5.198;2022-09-09T04:47:53;14.40;99.90
16881;DHT22;8557;52.068;5.198;2022-09-09T04:50:20;14.20;99.90
16881;DHT22;8557;52.068;5.198;2022-09-09T04:52:47;14.20;99.90
16881;DHT22;8557;52.068;5.198;2022-09-09T04:55:14;14.20;99.90
16881;DHT22;8557;52.068;5.198;2022-09-09T04:57:42;14.20;99.90
16881;DHT22;8557;52.068;5.198;2022-09-09T05:00:10;14.20;99.90
16881;DHT22;8557;52.068;5.198;2022-09-09T05:02:39;14.20;99.90
16881;DHT22;8557;52.068;5.198;2022-09-09T05:05:07;14.20;99.90
16881;DHT22;8557;52.068;5.198;2022-09-09T05:07:33;14.20;99.90
16881;DHT22;8557;52.068;5.198;2022-09-09T05:10:01;14.20;99.90
16881;DHT22;8557;52.068;5.198;2022-09-09T05:12:31;14.10;99.90
16881;DHT22;8557;52.068;5.198;2022-09-09T05:14:59;14.20;99.90
16881;DHT22;8557;52.068;5.198;2022-09-09T05:17:27;14.20;99.90
16881;DHT22;8557;52.068;5.198;2022-09-09T05:19:54;14.20;99.90
16881;DHT22;8557;52.068;5.198;2022-09-09T05:22:21;14.20;99.90
16881;DHT22;8557;52.068;5.198;2022-09-09T05:24:48;14.30;99.90
16881;DHT22;8557;52.068;5.198;2022-09-09T05:27:16;14.30;99.90
16881;DHT22;8557;52.068;5.198;2022-09-09T05:29:44;14.40;99.90
16881;DHT22;8557;52.068;5.198;2022-09-09T05:32:13;14.40;99.90
16881;DHT22;8557;52.068;5.198;2022-09-09T05:34:40;14.40;99.90
16881;DHT22;8557;52.068;5.198;2022-09-09T05:37:07;14.40;99.90
16881;DHT22;8557;52.068;5.198;2022-09-09T05:39:34;14.40;99.90
16881;DHT22;8557;52.068;5.198;2022-09-09T05:42:02;14.40;99.90
16881;DHT22;8557;52.068;5.198;2022-09-09T05:44:30;14.60;99.90
16881;DHT22;8557;52.068;5.198;2022-09-09T05:46:57;14.50;99.90
16881;DHT22;8557;52.068;5.198;2022-09-09T05:49:25;14.60;99.90
16881;DHT22;8557;52.068;5.198;2022-09-09T05:51:52;14.70;99.90
16881;DHT22;8557;52.068;5.198;2022-09-09T05:54:19;14.80;99.90
16881;DHT22;8557;52.068;5.198;2022-09-09T05:56:46;14.80;99.90
16881;DHT22;8557;52.068;5.198;2022-09-09T05:59:16;14.80;99.90
16881;DHT22;8557;52.068;5.198;2022-09-09T06:01:43;14.80;99.90
16881;DHT22;8557;52.068;5.198;2022-09-09T06:04:10;14.90;99.90
16881;DHT22;8557;52.068;5.198;2022-09-09T06:06:39;14.90;99.90
16881;DHT22;8557;52.068;5.198;2022-09-09T06:09:08;15.00;99.90
16881;DHT22;8557;52.068;5.198;2022-09-09T06:11:37;15.00;99.90
16881;DHT22;8557;52.068;5.198;2022-09-09T06:14:04;15.00;99.90
16881;DHT22;8557;52.068;5.198;2022-09-09T06:16:31;15.00;99.90
16881;DHT22;8557;52.068;5.198;2022-09-09T06:18:59;15.10;99.90
16881;DHT22;8557;52.068;5.198;2022-09-09T06:21:27;15.30;99.90
16881;DHT22;8557;52.068;5.198;2022-09-09T06:23:57;15.40;99.90
16881;DHT22;8557;52.068;5.198;2022-09-09T06:26:24;15.60;99.90
16881;DHT22;8557;52.068;5.198;2022-09-09T06:28:53;15.80;99.90
16881;DHT22;8557;52.068;5.198;2022-09-09T06:31:22;15.80;99.90
16881;DHT22;8557;52.068;5.198;2022-09-09T06:33:50;16.00;99.90
16881;DHT22;8557;52.068;5.198;2022-09-09T06:36:18;16.00;99.90
16881;DHT22;8557;52.068;5.198;2022-09-09T06:38:46;16.10;99.90
16881;DHT22;8557;52.068;5.198;2022-09-09T06:41:16;16.20;99.90
16881;DHT22;8557;52.068;5.198;2022-09-09T06:43:43;16.20;99.90
16881;DHT22;8557;52.068;5.198;2022-09-09T06:46:12;16.20;99.90
16881;DHT22;8557;52.068;5.198;2022-09-09T06:48:39;16.30;99.90
16881;DHT22;8557;52.068;5.198;2022-09-09T06:51:08;16.50;99.90
16881;DHT22;8557;52.068;5.198;2022-09-09T06:53:37;16.60;99.90
16881;DHT22;8557;52.068;5.198;2022-09-09T06:56:19;16.80;99.90
16881;DHT22;8557;52.068;5.198;2022-09-09T06:58:47;17.00;99.90
16881;DHT22;8557;52.068;5.198;2022-09-09T07:01:15;17.10;99.90
16881;DHT22;8557;52.068;5.198;2022-09-09T07:03:45;17.30;99.90
16881;DHT22;8557;52.068;5.198;2022-09-09T07:06:14;17.40;99.90
16881;DHT22;8557;52.068;5.198;2022-09-09T07:08:43;17.50;99.90
16881;DHT22;8557;52.068;5.198;2022-09-09T07:11:10;17.70;99.90
16881;DHT22;8557;52.068;5.198;2022-09-09T07:13:38;17.90;99.90
16881;DHT22;8557;52.068;5.198;2022-09-09T07:16:06;17.90;99.90
16881;DHT22;8557;52.068;5.198;2022-09-09T07:18:33;18.00;99.90
16881;DHT22;8557;52.068;5.198;2022-09-09T07:21:01;18.20;99.90
16881;DHT22;8557;52.068;5.198;2022-09-09T07:23:29;18.30;99.90
16881;DHT22;8557;52.068;5.198;2022-09-09T07:25:55;18.30;99.90
16881;DHT22;8557;52.068;5.198;2022-09-09T07:28:23;18.30;99.90
16881;DHT22;8557;52.068;5.198;2022-09-09T07:30:55;18.40;99.90
16881;DHT22;8557;52.068;5.198;2022-09-09T07:33:22;18.20;99.90
16881;DHT22;8557;52.068;5.198;2022-09-09T07:35:50;18.10;99.90
16881;DHT22;8557;52.068;5.198;2022-09-09T07:38:17;18.10;99.90
16881;DHT22;8557;52.068;5.198;2022-09-09T07:40:44;18.20;99.90
16881;DHT22;8557;52.068;5.198;2022-09-09T07:43:11;18.20;99.90
16881;DHT22;8557;52.068;5.198;2022-09-09T07:45:38;18.20;99.90
16881;DHT22;8557;52.068;5.198;2022-09-09T07:48:08;18.30;99.90
16881;DHT22;8557;52.068;5.198;2022-09-09T07:50:35;18.40;99.90
16881;DHT22;8557;52.068;5.198;2022-09-09T07:53:02;18.40;99.90
16881;DHT22;8557;52.068;5.198;2022-09-09T07:55:30;18.40;99.90
16881;DHT22;8557;52.068;5.198;2022-09-09T07:57:57;18.40;99.90
16881;DHT22;8557;52.068;5.198;2022-09-09T08:00:23;18.20;99.90
16881;DHT22;8557;52.068;5.198;2022-09-09T08:02:53;18.20;99.90
16881;DHT22;8557;52.068;5.198;2022-09-09T08:05:21;18.00;99.90
16881;DHT22;8557;52.068;5.198;2022-09-09T08:07:48;18.00;99.90
16881;DHT22;8557;52.068;5.198;2022-09-09T08:10:15;18.00;99.90
16881;DHT22;8557;52.068;5.198;2022-09-09T08:12:43;17.90;99.90
16881;DHT22;8557;52.068;5.198;2022-09-09T08:15:11;17.80;99.90
16881;DHT22;8557;52.068;5.198;2022-09-09T08:17:38;17.70;99.90
16881;DHT22;8557;52.068;5.198;2022-09-09T08:20:05;17.70;99.90
16881;DHT22;8557;52.068;5.198;2022-09-09T08:22:33;17.80;99.90
16881;DHT22;8557;52.068;5.198;2022-09-09T08:25:03;17.70;99.90
16881;DHT22;8557;52.068;5.198;2022-09-09T08:27:31;17.80;99.90
16881;DHT22;8557;52.068;5.198;2022-09-09T08:29:58;17.80;99.90
16881;DHT22;8557;52.068;5.198;2022-09-09T08:32:25;17.90;99.90
16881;DHT22;8557;52.068;5.198;2022-09-09T08:34:52;18.00;99.90
16881;DHT22;8557;52.068;5.198;2022-09-09T08:37:19;18.10;99.90
16881;DHT22;8557;52.068;5.198;2022-09-09T08:39:48;18.00;99.90
16881;DHT22;8557;52.068;5.198;2022-09-09T08:42:35;18.10;99.90
16881;DHT22;8557;52.068;5.198;2022-09-09T08:45:27;18.10;99.90
16881;DHT22;8557;52.068;5.198;2022-09-09T08:48:08;18.10;99.90
16881;DHT22;8557;52.068;5.198;2022-09-09T08:50:39;18.00;99.90
16881;DHT22;8557;52.068;5.198;2022-09-09T08:53:11;17.90;99.90
16881;DHT22;8557;52.068;5.198;2022-09-09T08:55:44;17.80;99.90
16881;DHT22;8557;52.068;5.198;2022-09-09T08:58:14;17.80;99.90
16881;DHT22;8557;52.068;5.198;2022-09-09T09:00:52;17.80;99.90
16881;DHT22;8557;52.068;5.198;2022-09-09T09:03:30;17.80;99.90
16881;DHT22;8557;52.068;5.198;2022-09-09T09:06:06;17.90;99.90
16881;DHT22;8557;52.068;5.198;2022-09-09T09:08:42;18.00;99.90
16881;DHT22;8557;52.068;5.198;2022-09-09T09:11:12;18.00;99.90
16881;DHT22;8557;52.068;5.198;2022-09-09T09:13:43;17.80;99.90
16881;DHT22;8557;52.068;5.198;2022-09-09T09:16:19;17.70;99.90
16881;DHT22;8557;52.068;5.198;2022-09-09T09:18:48;17.70;99.90
16881;DHT22;8557;52.068;5.198;2022-09-09T09:21:21;17.70;99.90
16881;DHT22;8557;52.068;5.198;2022-09-09T09:23:55;17.70;99.90
16881;DHT22;8557;52.068;5.198;2022-09-09T09:26:30;17.70;99.90
16881;DHT22;8557;52.068;5.198;2022-09-09T09:29:01;17.60;99.90
16881;DHT22;8557;52.068;5.198;2022-09-09T09:31:28;17.60;99.90
16881;DHT22;8557;52.068;5.198;2022-09-09T09:33:56;17.70;99.90
16881;DHT22;8557;52.068;5.198;2022-09-09T09:36:33;17.70;99.90
16881;DHT22;8557;52.068;5.198;2022-09-09T09:39:01;17.60;99.90
16881;DHT22;8557;52.068;5.198;2022-09-09T09:41:33;17.50;99.90
16881;DHT22;8557;52.068;5.198;2022-09-09T09:44:01;17.40;99.90
16881;DHT22;8557;52.068;5.198;2022-09-09T09:46:28;17.40;99.90
16881;DHT22;8557;52.068;5.198;2022-09-09T09:48:59;17.30;99.90
16881;DHT22;8557;52.068;5.198;2022-09-09T09:51:27;17.30;99.90
16881;DHT22;8557;52.068;5.198;2022-09-09T09:54:06;17.30;99.90
16881;DHT22;8557;52.068;5.198;2022-09-09T09:56:36;17.30;99.90
16881;DHT22;8557;52.068;5.198;2022-09-09T09:59:03;17.40;99.90
16881;DHT22;8557;52.068;5.198;2022-09-09T10:01:32;17.40;99.90
16881;DHT22;8557;52.068;5.198;2022-09-09T10:04:01;17.30;99.90
16881;DHT22;8557;52.068;5.198;2022-09-09T10:06:32;17.40;99.90
16881;DHT22;8557;52.068;5.198;2022-09-09T10:09:00;17.40;99.90
16881;DHT22;8557;52.068;5.198;2022-09-09T10:11:38;17.40;99.90
16881;DHT22;8557;52.068;5.198;2022-09-09T10:14:15;17.40;99.90
16881;DHT22;8557;52.068;5.198;2022-09-09T10:16:57;17.40;99.90
16881;DHT22;8557;52.068;5.198;2022-09-09T10:19:30;17.50;99.90
16881;DHT22;8557;52.068;5.198;2022-09-09T10:22:13;17.40;99.90
16881;DHT22;8557;52.068;5.198;2022-09-09T10:25:05;17.40;99.90
16881;DHT22;8557;52.068;5.198;2022-09-09T10:27:47;17.50;99.90
16881;DHT22;8557;52.068;5.198;2022-09-09T10:30:19;17.70;99.90
16881;DHT22;8557;52.068;5.198;2022-09-09T10:32:48;18.10;99.90
16881;DHT22;8557;52.068;5.198;2022-09-09T10:35:30;18.40;99.90
16881;DHT22;8557;52.068;5.198;2022-09-09T10:38:17;18.50;99.90
16881;DHT22;8557;52.068;5.198;2022-09-09T10:41:02;18.50;99.90
16881;DHT22;8557;52.068;5.198;2022-09-09T10:43:57;18.60;99.90
16881;DHT22;8557;52.068;5.198;2022-09-09T10:46:37;18.70;99.90
16881;DHT22;8557;52.068;5.198;2022-09-09T10:49:18;18.90;99.90
16881;DHT22;8557;52.068;5.198;2022-09-09T10:51:53;19.00;99.90
16881;DHT22;8557;52.068;5.198;2022-09-09T10:54:32;19.10;99.90
16881;DHT22;8557;52.068;5.198;2022-09-09T10:57:09;19.30;99.90
16881;DHT22;8557;52.068;5.198;2022-09-09T10:59:43;19.60;99.90
16881;DHT22;8557;52.068;5.198;2022-09-09T11:02:15;19.60;99.90
16881;DHT22;8557;52.068;5.198;2022-09-09T11:04:49;19.70;99.90
16881;DHT22;8557;52.068;5.198;2022-09-09T11:07:24;19.80;99.90
16881;DHT22;8557;52.068;5.198;2022-09-09T11:09:57;19.50;99.90
16881;DHT22;8557;52.068;5.198;2022-09-09T11:12:27;19.30;99.90
16881;DHT22;8557;52.068;5.198;2022-09-09T11:15:01;19.00;99.90
16881;DHT22;8557;52.068;5.198;2022-09-09T11:17:36;18.90;99.90
16881;DHT22;8557;52.068;5.198;2022-09-09T11:20:06;18.70;99.90
16881;DHT22;8557;52.068;5.198;2022-09-09T11:22:42;18.70;99.90
16881;DHT22;8557;52.068;5.198;2022-09-09T11:25:15;18.70;99.90
16881;DHT22;8557;52.068;5.198;2022-09-09T11:27:50;18.70;99.90
16881;DHT22;8557;52.068;5.198;2022-09-09T11:30:22;18.70;99.90
16881;DHT22;8557;52.068;5.198;2022-09-09T11:36:01;18.70;99.90
16881;DHT22;8557;52.068;5.198;2022-09-09T11:38:37;18.80;99.90
16881;DHT22;8557;52.068;5.198;2022-09-09T11:41:07;18.60;99.90
16881;DHT22;8557;52.068;5.198;2022-09-09T11:43:39;18.40;99.90
16881;DHT22;8557;52.068;5.198;2022-09-09T11:46:09;18.50;99.90
16881;DHT22;8557;52.068;5.198;2022-09-09T11:48:38;18.40;99.90
16881;DHT22;8557;52.068;5.198;2022-09-09T11:51:10;18.50;99.90
16881;DHT22;8557;52.068;5.198;2022-09-09T11:53:48;18.40;99.90
16881;DHT22;8557;52.068;5.198;2022-09-09T11:56:25;18.50;99.90
16881;DHT22;8557;52.068;5.198;2022-09-09T11:58:58;18.40;99.90
16881;DHT22;8557;52.068;5.198;2022-09-09T12:01:35;18.50;99.90
16881;DHT22;8557;52.068;5.198;2022-09-09T12:07:00;18.40;99.90
16881;DHT22;8557;52.068;5.198;2022-09-09T12:09:33;18.30;99.90
16881;DHT22;8557;52.068;5.198;2022-09-09T12:12:07;18.20;99.90
16881;DHT22;8557;52.068;5.198;2022-09-09T12:14:36;18.20;99.90
16881;DHT22;8557;52.068;5.198;2022-09-09T12:17:18;18.30;99.90
16881;DHT22;8557;52.068;5.198;2022-09-09T12:19:46;18.40;99.90
16881;DHT22;8557;52.068;5.198;2022-09-09T12:22:22;18.40;99.90
16881;DHT22;8557;52.068;5.198;2022-09-09T12:24:58;18.50;99.90
16881;DHT22;8557;52.068;5.198;2022-09-09T12:27:31;18.50;99.90
16881;DHT22;8557;52.068;5.198;2022-09-09T12:30:03;18.40;99.90
16881;DHT22;8557;52.068;5.198;2022-09-09T12:32:31;18.50;99.90
16881;DHT22;8557;52.068;5.198;2022-09-09T12:35:02;18.50;99.90
16881;DHT22;8557;52.068;5.198;2022-09-09T12:40:05;19.30;99.90
16881;DHT22;8557;52.068;5.198;2022-09-09T12:42:32;19.80;99.90
16881;DHT22;8557;52.068;5.198;2022-09-09T12:45:00;20.10;99.90
16881;DHT22;8557;52.068;5.198;2022-09-09T12:47:37;20.20;99.90
16881;DHT22;8557;52.068;5.198;2022-09-09T12:50:15;20.30;99.90
16881;DHT22;8557;52.068;5.198;2022-09-09T12:52:43;20.60;99.90
16881;DHT22;8557;52.068;5.198;2022-09-09T12:55:17;20.50;99.90
16881;DHT22;8557;52.068;5.198;2022-09-09T12:57:44;20.30;99.90
16881;DHT22;8557;52.068;5.198;2022-09-09T13:00:15;20.10;99.90
16881;DHT22;8557;52.068;5.198;2022-09-09T13:02:49;20.00;99.90
16881;DHT22;8557;52.068;5.198;2022-09-09T13:05:19;20.00;99.90
16881;DHT22;8557;52.068;5.198;2022-09-09T13:07:46;19.80;99.90
16881;DHT22;8557;52.068;5.198;2022-09-09T13:10:15;19.90;99.90
16881;DHT22;8557;52.068;5.198;2022-09-09T13:12:46;20.00;99.90
16881;DHT22;8557;52.068;5.198;2022-09-09T13:15:19;19.80;99.90
16881;DHT22;8557;52.068;5.198;2022-09-09T13:17:54;19.50;99.90
16881;DHT22;8557;52.068;5.198;2022-09-09T13:20:22;19.20;99.90
16881;DHT22;8557;52.068;5.198;2022-09-09T13:22:51;19.20;99.90
16881;DHT22;8557;52.068;5.198;2022-09-09T13:25:22;19.40;99.90
16881;DHT22;8557;52.068;5.198;2022-09-09T13:27:59;19.30;99.90
16881;DHT22;8557;52.068;5.198;2022-09-09T13:30:29;19.40;99.90
16881;DHT22;8557;52.068;5.198;2022-09-09T13:33:05;19.50;99.90
16881;DHT22;8557;52.068;5.198;2022-09-09T13:35:32;19.40;99.90
16881;DHT22;8557;52.068;5.198;2022-09-09T13:38:06;19.40;99.90
16881;DHT22;8557;52.068;5.198;2022-09-09T13:40:34;19.30;99.90
16881;DHT22;8557;52.068;5.198;2022-09-09T13:43:02;19.20;99.90
16881;DHT22;8557;52.068;5.198;2022-09-09T13:45:30;19.10;99.90
16881;DHT22;8557;52.068;5.198;2022-09-09T13:48:10;19.00;99.90
16881;DHT22;8557;52.068;5.198;2022-09-09T13:50:37;18.90;99.90
16881;DHT22;8557;52.068;5.198;2022-09-09T13:53:04;18.90;99.90
16881;DHT22;8557;52.068;5.198;2022-09-09T13:55:31;18.80;99.90
16881;DHT22;8557;52.068;5.198;2022-09-09T13:57:59;18.70;99.90
16881;DHT22;8557;52.068;5.198;2022-09-09T14:00:29;18.60;99.90
16881;DHT22;8557;52.068;5.198;2022-09-09T14:02:56;18.50;99.90
16881;DHT22;8557;52.068;5.198;2022-09-09T14:05:24;18.50;99.90
16881;DHT22;8557;52.068;5.198;2022-09-09T14:07:53;18.50;99.90
16881;DHT22;8557;52.068;5.198;2022-09-09T14:10:19;18.50;99.90
16881;DHT22;8557;52.068;5.198;2022-09-09T14:12:47;18.30;99.90
16881;DHT22;8557;52.068;5.198;2022-09-09T14:15:14;18.30;99.90
16881;DHT22;8557;52.068;5.198;2022-09-09T14:17:41;18.20;99.90
16881;DHT22;8557;52.068;5.198;2022-09-09T14:20:10;18.10;99.90
16881;DHT22;8557;52.068;5.198;2022-09-09T14:22:38;17.90;99.90
16881;DHT22;8557;52.068;5.198;2022-09-09T14:25:07;18.00;99.90
16881;DHT22;8557;52.068;5.198;2022-09-09T14:27:33;17.90;99.90
16881;DHT22;8557;52.068;5.198;2022-09-09T14:30:00;18.00;99.90
16881;DHT22;8557;52.068;5.198;2022-09-09T14:32:27;18.00;99.90
16881;DHT22;8557;52.068;5.198;2022-09-09T14:34:54;17.90;99.90
16881;DHT22;8557;52.068;5.198;2022-09-09T14:37:21;18.20;99.90
16881;DHT22;8557;52.068;5.198;2022-09-09T14:39:49;18.90;99.90
16881;DHT22;8557;52.068;5.198;2022-09-09T14:42:17;22.60;99.90
16881;DHT22;8557;52.068;5.198;2022-09-09T14:44:44;24.60;99.90
16881;DHT22;8557;52.068;5.198;2022-09-09T14:47:11;24.10;99.90
16881;DHT22;8557;52.068;5.198;2022-09-09T14:49:37;23.10;99.90
16881;DHT22;8557;52.068;5.198;2022-09-09T14:52:05;22.10;99.90
16881;DHT22;8557;52.068;5.198;2022-09-09T14:54:32;21.50;99.90
16881;DHT22;8557;52.068;5.198;2022-09-09T14:57:00;21.00;99.90
16881;DHT22;8557;52.068;5.198;2022-09-09T14:59:27;20.80;99.90
16881;DHT22;8557;52.068;5.198;2022-09-09T15:01:54;21.10;99.90
16881;DHT22;8557;52.068;5.198;2022-09-09T15:04:21;20.40;99.90
16881;DHT22;8557;52.068;5.198;2022-09-09T15:06:48;20.20;99.90
16881;DHT22;8557;52.068;5.198;2022-09-09T15:09:17;19.80;99.90
16881;DHT22;8557;52.068;5.198;2022-09-09T15:11:44;19.80;99.90
16881;DHT22;8557;52.068;5.198;2022-09-09T15:14:12;19.60;99.90
16881;DHT22;8557;52.068;5.198;2022-09-09T15:16:40;19.70;99.90
16881;DHT22;8557;52.068;5.198;2022-09-09T15:19:06;19.60;99.90
16881;DHT22;8557;52.068;5.198;2022-09-09T15:21:36;19.50;99.90
16881;DHT22;8557;52.068;5.198;2022-09-09T15:24:04;19.40;99.90
16881;DHT22;8557;52.068;5.198;2022-09-09T15:26:33;19.50;99.90
16881;DHT22;8557;52.068;5.198;2022-09-09T15:29:00;19.80;99.90
16881;DHT22;8557;52.068;5.198;2022-09-09T15:31:30;20.00;99.90
16881;DHT22;8557;52.068;5.198;2022-09-09T15:33:59;20.00;99.90
16881;DHT22;8557;52.068;5.198;2022-09-09T15:36:27;20.00;99.90
16881;DHT22;8557;52.068;5.198;2022-09-09T15:38:55;20.20;99.90
16881;DHT22;8557;52.068;5.198;2022-09-09T15:41:22;20.20;99.90
16881;DHT22;8557;52.068;5.198;2022-09-09T15:43:51;20.40;99.90
16881;DHT22;8557;52.068;5.198;2022-09-09T15:46:25;20.50;99.90
16881;DHT22;8557;52.068;5.198;2022-09-09T15:48:54;20.70;99.90
16881;DHT22;8557;52.068;5.198;2022-09-09T15:51:22;20.70;99.90
16881;DHT22;8557;52.068;5.198;2022-09-09T15:53:54;20.90;99.90
16881;DHT22;8557;52.068;5.198;2022-09-09T15:56:21;21.10;99.90
16881;DHT22;8557;52.068;5.198;2022-09-09T15:58:48;21.10;99.90
16881;DHT22;8557;52.068;5.198;2022-09-09T16:01:15;21.40;99.90
16881;DHT22;8557;52.068;5.198;2022-09-09T16:03:42;21.40;99.90
16881;DHT22;8557;52.068;5.198;2022-09-09T16:06:13;21.20;98.30
16881;DHT22;8557;52.068;5.198;2022-09-09T16:08:43;20.80;95.60
16881;DHT22;8557;52.068;5.198;2022-09-09T16:11:12;20.50;99.90
16881;DHT22;8557;52.068;5.198;2022-09-09T16:13:40;20.40;99.90
16881;DHT22;8557;52.068;5.198;2022-09-09T16:16:08;20.00;99.90